• Join FlightAware (Why Join?)
  • Login
  • US Flag 
11:47PM EDT


 

Airport Tracker/Info


-or-


 

Live Flight TrackerFlight Track Log ✈ XOJ549 ✈ 24-Jun-2013 ✈ KTEB - KGSO

Flight Track Log - Related Links

Times and Time Zones

All times are in EDT time to prevent confusion due to time zone crossing. See the XOJ549 flight status page for this flight to view local times or setup timezone preferences in your user account.

Time Position Orientation Groundspeed Altitude Reporting Facility
EDT Latitude Longitude Course Direction KTS MPH feet Rate Location/Type
06:55PM 40.8167 -74.1500 226° Southwest 182 209 1,600  Level New York TRACON
06:56PM 40.8000 -74.2000 246° West 183 211 3,800 1,980 Climbing New York TRACON
06:57PM 40.7333 -74.2167 191° South 249 287 5,600 1,200 Climbing New York TRACON
06:58PM 40.6667 -74.2500 201° Southwest 281 323 6,100 240 Climbing New York TRACON
06:59PM 40.5833 -74.2667 189° South 283 326 6,100 -60 Level New York TRACON
07:00PM 40.3605 -74.7231 226° Southwest  Level Estimated
07:00PM 40.5000 -74.2500 171° South 285 328 6,000  Level New York TRACON
07:02PM 40.3105 -74.1900 166° South  Level FlightAware Approximate
07:09PM 39.5972 -74.6194 218° Southwest  Level FlightAware Approximate
07:09PM 39.8453 -74.4078 237° Southwest 273 314 6,000  Level Washington Center
07:10PM 39.5046 -74.7121 218° Southwest  Level FlightAware Approximate
07:11PM 39.4099 -74.8010 216° Southwest  Level FlightAware Approximate
07:11PM 39.7173 -74.5098 212° Southwest  Level FlightAware Approximate
07:12PM 39.3151 -74.8895 216° Southwest  Level FlightAware Approximate
07:13PM 39.2286 -74.9886 234° Southwest  Level FlightAware Approximate
07:14PM 39.1609 -75.1117 237° Southwest  Level FlightAware Approximate
07:14PM 39.5808 -74.6600 237° Southwest 269 310 6,000  Level Washington Center
07:15PM 39.0975 -75.2384 237° Southwest  Level FlightAware Approximate
07:16PM 39.4456 -74.8822 216° Southwest  Level Estimated
07:18PM 39.2051 -75.3372 237° Southwest  Level Estimated
07:18PM 39.3364 -74.8858 236° Southwest 270 311 6,000  Level Washington Center
07:19PM 39.1314 -75.4544 237° Southwest  Level Estimated
07:20PM 39.2035 -75.1097 237° Southwest  Level Estimated
07:23PM 38.8921 -75.6404 236° Southwest  Level FlightAware Approximate
07:26PM 38.9500 -75.5500 225° Southwest 262 302 6,000  Level Potomac TRACON
07:27PM 38.7016 -75.9415 218° Southwest  Level Estimated
07:27PM 38.9300 -75.5864 235° Southwest 272 313 6,000  Level Washington Center
07:28PM 38.6295 -76.0594 218° Southwest  Level Estimated
07:28PM 38.8861 -75.6664 235° Southwest 270 311 6,000  Level Washington Center
07:29PM 38.5572 -76.1770 210° Southwest  Level Estimated
07:29PM 38.8403 -75.7517 235° Southwest 255 293 6,000  Level Washington Center
07:30PM 38.4847 -76.2944 218° Southwest  Level Estimated
07:30PM 38.8047 -75.8233 238° Southwest 246 283 6,000  Level Washington Center
07:31PM 38.3766 -76.3512 202° Southwest  Level FlightAware Approximate
07:31PM 38.7628 -75.9006 235° Southwest 259 298 6,000  Level Washington Center
07:32PM 38.3054 -76.4696 225° Southwest  Level Estimated
07:32PM 38.7189 -75.9828 236° Southwest 268 308 6,000  Level Washington Center
07:33PM 38.6686 -76.0489 226° Southwest 259 298 6,000  Level Washington Center
07:34PM 38.6142 -76.1019 217° Southwest 257 296 6,000  Level Washington Center
07:35PM 38.5556 -76.1544 215° Southwest 257 296 6,000  Level Washington Center
07:36PM 38.4928 -76.2125 216° Southwest 260 299 6,000  Level Washington Center
07:37PM 38.4339 -76.2675 216° Southwest 261 300 6,000  Level Washington Center
07:38PM 38.3794 -76.3175 216° Southwest 263 303 6,000  Level Washington Center
07:39PM 38.3186 -76.3697 214° Southwest 266 306 6,000  Level Washington Center
07:40PM 38.2642 -76.4381 225° Southwest 280 322 6,000  Level Washington Center
07:41PM 38.2178 -76.5008 227° Southwest 264 304 6,000  Level Washington Center
07:43PM 38.1484 -76.5779 221° Southwest  Level FlightAware Approximate
07:43PM 38.0833 -76.6833 221° Southwest 271 312 6,000  Level Potomac TRACON
07:44PM 38.0333 -76.7500 226° Southwest 268 308 6,000  Level Potomac TRACON
07:45PM 37.9833 -76.8167 226° Southwest 272 313 6,000  Level Potomac TRACON
07:46PM 37.9333 -76.8833 226° Southwest 266 306 6,000 240 Level Potomac TRACON
07:47PM 37.9000 -76.9667 243° Southwest 268 308 6,500 1,140 Climbing Potomac TRACON
07:48PM 37.8728 -77.0097 231° Southwest 274 315 7,800 1,560 Climbing Washington Center
07:49PM 37.8281 -77.0903 235° Southwest 280 322 9,000 540 Climbing Washington Center
07:50PM 37.7936 -77.1817 245° Southwest 280 322 9,000  Level Washington Center
07:51PM 37.7592 -77.2650 242° Southwest 280 322 9,000 780 Level Washington Center
07:52PM 37.7142 -77.3506 236° Southwest 285 328 10,600 1,740 Climbing Washington Center
07:53PM 37.6586 -77.4386 231° Southwest 304 350 12,600 2,160 Climbing Washington Center
07:54PM 37.6006 -77.5367 233° Southwest 321 369 14,900 2,940 Climbing Washington Center
07:55PM 37.5450 -77.6269 232° Southwest 359 413 18,500 2,460 Climbing Washington Center
07:56PM 37.4825 -77.7325 233° Southwest 369 425 20,000 720 Climbing Washington Center
07:57PM 37.4158 -77.8406 232° Southwest 386 444 20,000  Level Washington Center
07:58PM 37.3469 -77.9508 232° Southwest 397 457 20,000  Level Washington Center
07:59PM 37.2822 -78.0611 234° Southwest 402 463 20,000  Level Washington Center
08:00PM 37.2089 -78.1814 233° Southwest 407 468 20,000  Level Washington Center
08:01PM 37.1331 -78.3011 232° Southwest 407 468 20,000  Level Washington Center
08:02PM 37.0639 -78.4133 232° Southwest 402 463 20,000  Level Washington Center
08:03PM 36.9986 -78.5228 233° Southwest 402 463 20,000  Level Washington Center
08:04PM 36.9314 -78.6294 232° Southwest 402 463 20,000  Level Washington Center
08:05PM 36.8550 -78.7508 232° Southwest 407 468 20,000  Level Washington Center
08:06PM 36.7853 -78.8622 232° Southwest 407 468 20,000  Level Washington Center
08:07PM 36.7178 -78.9681 232° Southwest 407 468 20,000 -60 Level Washington Center
08:08PM 36.6606 -79.0719 236° Southwest 402 463 19,900 -1,140 Descending Washington Center
08:09PM 36.5950 -79.1672 229° Southwest 397 457 17,800 -2,160 Descending Washington Center
08:11PM 36.5286 -79.2635 233° Southwest  Level FlightAware Approximate
08:18PM 36.1811 -79.7974 227° Southwest  Level FlightAware Approximate
08:19PM 36.1318 -79.8748 233° Southwest  Level FlightAware Approximate
08:20PM 36.1000 -79.9333 238° Southwest  Level FlightAware Approximate
08:21PM 36.1013 -79.9411 238° Southwest  Level Estimated
08:22PM 36.1000 -79.9333 238° Southwest  Level FlightAware Approximate
08:23PM 36.1013 -79.9411 238° Southwest  Level Estimated
08:24PM 36.1000 -79.9333 238° Southwest  Level FlightAware Approximate
08:25PM 36.1013 -79.9411 238° Southwest  Level Estimated
08:26PM 36.1000 -79.9333 238° Southwest  Level FlightAware Approximate